Time;durP1;ratioP1;P1;durP2;ratioP2;P2;SDS_P1;SDS_P2;PMS_P1;PMS_P2;Temp;Humidity;BMP_temperature;BMP_pressure;BME280_temperature;BME280_humidity;BME280_pressure;Samples;Min_cycle;Max_cycle;Signal;HPM_P1;HPM_P2
2024/03/18 00:01:59;;;;;;;17.50;5.40;;;;;;;7.76;100.00;102158.97;5043468;28;20465;-73
2024/03/18 00:04:25;;;;;;;13.27;4.60;;;;;;;7.62;100.00;102125.56;5044992;28;20461;-73
2024/03/18 00:06:50;;;;;;;9.10;4.80;;;;;;;6.83;100.00;102001.47;5040318;28;20214;-73
2024/03/18 00:09:15;;;;;;;11.47;5.80;;;;;;;7.75;100.00;102158.09;5040605;28;20555;-73
2024/03/18 00:11:41;;;;;;;12.00;5.23;;;;;;;7.74;100.00;102115.53;5042185;28;20211;-73
2024/03/18 00:14:06;;;;;;;12.43;4.73;;;;;;;7.97;100.00;102175.56;5041948;28;20274;-73
2024/03/18 00:16:32;;;;;;;11.30;4.73;;;;;;;7.29;100.00;102077.13;5039531;28;20554;-73
2024/03/18 00:18:57;;;;;;;15.87;4.90;;;;;;;7.98;100.00;102181.75;5025975;28;20183;-73
2024/03/18 00:21:23;;;;;;;9.97;4.40;;;;;;;7.96;100.00;102130.31;5041244;28;20753;-73
2024/03/18 00:23:48;;;;;;;13.90;5.40;;;;;;;7.57;100.00;102093.13;5043190;28;20195;-73
2024/03/18 00:26:13;;;;;;;11.50;4.87;;;;;;;7.72;100.00;102117.50;5031210;28;20200;-73
2024/03/18 00:28:39;;;;;;;14.53;5.63;;;;;;;6.84;100.00;101973.78;5041147;28;20194;-73
2024/03/18 00:31:05;;;;;;;9.77;4.50;;;;;;;8.00;100.00;102172.59;5043039;28;20187;-73
2024/03/18 00:33:30;;;;;;;13.67;5.17;;;;;;;8.09;100.00;102157.50;5040008;28;20442;-73
2024/03/18 00:35:57;;;;;;;16.63;5.20;;;;;;;8.08;100.00;102155.84;5043271;28;20191;-73
2024/03/18 00:38:22;;;;;;;11.77;5.20;;;;;;;8.05;100.00;102150.78;5044789;28;20187;-73
2024/03/18 00:40:56;;;;;;;13.53;5.30;;;;;;;8.08;100.00;102156.66;5038881;28;21059;-73
2024/03/18 00:43:22;;;;;;;12.03;5.10;;;;;;;7.45;100.00;102053.28;5043146;28;20674;-73
2024/03/18 00:45:49;;;;;;;15.70;5.60;;;;;;;7.48;100.00;102052.13;5023869;28;20907;-74
2024/03/18 00:48:15;;;;;;;12.30;5.20;;;;;;;8.23;100.00;102138.28;5040855;28;20438;-73
2024/03/18 00:50:41;;;;;;;12.70;4.77;;;;;;;7.63;100.00;102074.66;5040365;28;20457;-73
2024/03/18 00:53:07;;;;;;;11.10;5.10;;;;;;;7.50;100.00;102026.13;5044678;28;20200;-73
2024/03/18 00:55:33;;;;;;;11.70;5.10;;;;;;;7.88;100.00;102086.47;5032050;28;21007;-73
2024/03/18 00:57:59;;;;;;;12.13;5.03;;;;;;;7.55;100.00;102044.38;5036484;28;20442;-73
2024/03/18 01:00:24;;;;;;;11.50;4.40;;;;;;;8.03;100.00;102113.53;5028172;28;21297;-73
2024/03/18 01:02:50;;;;;;;15.17;5.77;;;;;;;8.08;100.00;102100.56;5041872;28;20224;-73
2024/03/18 01:05:15;;;;;;;13.27;5.20;;;;;;;8.06;100.00;102107.88;5039544;28;20746;-73
2024/03/18 01:07:41;;;;;;;9.80;4.60;;;;;;;8.12;100.00;102114.44;5030065;28;20644;-73
2024/03/18 01:10:07;;;;;;;12.30;4.53;;;;;;;7.95;100.00;102084.03;5039455;28;20184;-73
2024/03/18 01:12:32;;;;;;;9.83;4.73;;;;;;;7.80;100.00;102038.31;5020164;28;20211;-73
2024/03/18 01:14:58;;;;;;;12.73;5.30;;;;;;;7.50;100.00;101969.25;5034480;28;20453;-73
2024/03/18 01:17:23;;;;;;;10.87;5.00;;;;;;;8.09;100.00;102058.63;5041447;28;20207;-73
2024/03/18 01:19:49;;;;;;;14.90;5.20;;;;;;;8.07;100.00;102064.13;5041886;28;20211;-73
2024/03/18 01:22:14;;;;;;;10.83;5.13;;;;;;;7.91;100.00;102030.06;5040002;28;20207;-73
2024/03/18 01:24:41;;;;;;;11.67;4.77;;;;;;;8.12;100.00;102061.00;5037894;28;20188;-73
2024/03/18 01:27:06;;;;;;;14.93;4.53;;;;;;;7.95;100.00;102064.50;5042124;28;20187;-73
2024/03/18 01:29:31;;;;;;;13.00;5.10;;;;;;;7.65;100.00;102002.44;5040323;28;20442;-73
2024/03/18 01:31:57;;;;;;;14.60;5.50;;;;;;;7.02;100.00;101901.81;5043568;28;20408;-73
2024/03/18 01:34:23;;;;;;;17.50;5.40;;;;;;;7.92;100.00;102039.75;5042427;28;20253;-73
2024/03/18 01:36:49;;;;;;;12.87;4.67;;;;;;;8.05;100.00;102036.72;5023637;28;20778;-73
2024/03/18 01:39:19;;;;;;;11.90;4.40;;;;;;;8.01;100.00;102034.50;5039141;28;20446;-73
2024/03/18 01:41:45;;;;;;;12.40;5.30;;;;;;;7.99;100.00;102036.50;5042070;28;20220;-73
2024/03/18 01:44:10;;;;;;;11.23;4.60;;;;;;;6.97;100.00;101890.75;5041707;28;20449;-73
2024/03/18 01:46:36;;;;;;;11.93;4.83;;;;;;;7.67;100.00;101955.06;5036703;28;20192;-73
2024/03/18 01:49:01;;;;;;;11.60;4.80;;;;;;;7.90;100.00;102031.06;5041111;28;20192;-73
2024/03/18 01:51:28;;;;;;;9.20;4.20;;;;;;;7.97;100.00;102022.44;5039274;28;20203;-73
2024/03/18 01:53:54;;;;;;;10.13;3.93;;;;;;;7.91;100.00;102031.91;5039798;28;20196;-73
2024/03/18 01:56:20;;;;;;;11.43;4.73;;;;;;;6.65;100.00;101856.53;5041908;28;20541;-72
2024/03/18 01:58:49;;;;;;;16.47;5.53;;;;;;;7.46;100.00;101955.34;5040517;28;20440;-72
2024/03/18 02:01:15;;;;;;;14.93;5.47;;;;;;;7.89;100.00;102037.38;5039756;28;20855;-73
2024/03/18 02:03:40;;;;;;;9.63;3.97;;;;;;;7.25;100.00;101955.63;5037282;28;20492;-73
2024/03/18 02:06:06;;;;;;;16.23;4.13;;;;;;;6.82;100.00;101871.75;5041896;28;20441;-73
2024/03/18 02:08:33;;;;;;;13.83;4.90;;;;;;;7.12;100.00;101917.78;5037560;28;21421;-73
2024/03/18 02:10:59;;;;;;;12.47;4.83;;;;;;;7.87;100.00;102028.72;5038638;28;20454;-73
2024/03/18 02:13:25;;;;;;;14.73;4.60;;;;;;;7.74;100.00;102022.88;5042428;28;20449;-73
2024/03/18 02:15:51;;;;;;;8.40;4.30;;;;;;;7.44;100.00;101966.19;5039720;28;20474;-73
2024/03/18 02:18:16;;;;;;;11.00;4.40;;;;;;;7.38;100.00;101918.75;5037918;28;20477;-72
2024/03/18 02:20:42;;;;;;;13.23;4.30;;;;;;;6.76;100.00;101867.03;5037738;28;20223;-73
2024/03/18 02:23:09;;;;;;;12.73;4.40;;;;;;;7.91;100.00;102002.53;5036848;28;20947;-73
2024/03/18 02:25:34;;;;;;;13.77;5.40;;;;;;;7.84;100.00;102004.97;5041196;28;20589;-74
2024/03/18 02:28:00;;;;;;;12.33;4.40;;;;;;;7.90;100.00;102012.38;5040001;28;20476;-73
2024/03/18 02:30:25;;;;;;;10.83;4.80;;;;;;;7.83;100.00;101999.78;5026833;28;22256;-73
2024/03/18 02:32:51;;;;;;;8.93;4.23;;;;;;;7.69;100.00;101966.41;5037602;28;20214;-73
2024/03/18 02:35:16;;;;;;;10.40;4.20;;;;;;;7.93;100.00;101992.53;5041144;28;20202;-73
2024/03/18 02:37:45;;;;;;;11.50;4.57;;;;;;;7.34;100.00;101917.34;5037426;28;20268;-73
2024/03/18 02:40:12;;;;;;;11.13;4.70;;;;;;;7.54;100.00;101944.75;5020444;28;20187;-72
2024/03/18 02:42:39;;;;;;;15.00;5.03;;;;;;;7.52;100.00;101948.56;5041735;28;20544;-73
2024/03/18 02:45:09;;;;;;;8.30;4.00;;;;;;;7.82;100.00;101976.72;5040489;28;20439;-73
2024/03/18 02:47:45;;;;;;;8.90;4.10;;;;;;;7.63;100.00;101948.34;5018793;28;20438;-73
2024/03/18 02:50:11;;;;;;;8.20;4.30;;;;;;;7.70;100.00;101974.28;5019131;28;24744;-73
2024/03/18 02:52:39;;;;;;;15.90;4.50;;;;;;;7.63;100.00;101965.19;5036104;28;20497;-73
2024/03/18 02:55:05;;;;;;;13.83;4.03;;;;;;;7.22;100.00;101899.88;5039095;28;20438;-73
2024/03/18 02:57:30;;;;;;;10.60;4.00;;;;;;;7.17;100.00;101878.13;5040000;28;20441;-73
2024/03/18 02:59:56;;;;;;;10.50;4.27;;;;;;;7.72;100.00;101966.09;5041570;28;21975;-73
2024/03/18 03:02:22;;;;;;;16.30;4.23;;;;;;;7.51;100.00;101925.53;5024784;28;20324;-73
2024/03/18 03:04:47;;;;;;;13.60;4.50;;;;;;;6.81;100.00;101822.09;5036917;28;21128;-73
2024/03/18 03:07:13;;;;;;;9.70;4.33;;;;;;;7.56;100.00;101965.97;5021401;28;20279;-73
2024/03/18 03:09:38;;;;;;;9.87;4.10;;;;;;;7.29;100.00;101892.09;5037804;28;20199;-73
2024/03/18 03:12:05;;;;;;;12.47;4.50;;;;;;;7.65;100.00;101955.19;5018152;28;20239;-73
2024/03/18 03:14:31;;;;;;;11.63;4.80;;;;;;;7.70;100.00;101952.91;5023080;28;22550;-73
2024/03/18 03:16:56;;;;;;;10.73;4.70;;;;;;;7.67;100.00;101947.06;5023707;28;20195;-73
2024/03/18 03:19:23;;;;;;;8.80;4.40;;;;;;;7.11;100.00;101860.91;5026723;28;21447;-73
2024/03/18 03:21:48;;;;;;;11.37;4.60;;;;;;;7.64;100.00;101923.31;5021376;28;20995;-73
2024/03/18 03:24:13;;;;;;;12.80;4.90;;;;;;;7.08;100.00;101823.03;5028603;28;20455;-73
2024/03/18 03:26:39;;;;;;;11.00;4.47;;;;;;;6.31;100.00;101729.25;5024682;28;20192;-73
2024/03/18 03:29:04;;;;;;;10.73;4.80;;;;;;;7.73;100.00;101925.06;5022830;28;20192;-73
2024/03/18 03:31:30;;;;;;;11.63;4.70;;;;;;;6.68;100.00;101774.47;5001870;28;20319;-73
2024/03/18 03:33:55;;;;;;;13.90;4.90;;;;;;;7.47;100.00;101883.13;5022680;28;20255;-73
2024/03/18 03:36:21;;;;;;;13.30;4.70;;;;;;;7.41;100.00;101866.88;5027464;28;20222;-73
2024/03/18 03:38:47;;;;;;;16.70;5.00;;;;;;;6.57;100.00;101756.84;5026227;28;20215;-73
2024/03/18 03:41:13;;;;;;;14.13;4.90;;;;;;;7.47;100.00;101900.97;5022391;28;20594;-73
2024/03/18 03:43:38;;;;;;;12.40;4.70;;;;;;;7.72;100.00;101909.19;5026235;28;20431;-73
2024/03/18 03:46:04;;;;;;;10.97;5.20;;;;;;;7.19;100.00;101830.81;5023466;28;20189;-73
2024/03/18 03:48:30;;;;;;;12.27;5.07;;;;;;;6.53;100.00;101744.78;5004860;28;20219;-73
2024/03/18 03:50:56;;;;;;;14.47;4.90;;;;;;;7.50;100.00;101895.31;5027455;28;20859;-73
2024/03/18 03:53:24;;;;;;;12.33;5.07;;;;;;;7.05;100.00;101842.84;5003656;28;20198;-73
2024/03/18 03:55:56;;;;;;;12.77;4.93;;;;;;;7.24;100.00;101844.53;5003328;28;20442;-73
2024/03/18 03:58:22;;;;;;;9.50;4.30;;;;;;;6.85;100.00;101788.78;5026138;28;20969;-73
2024/03/18 04:00:47;;;;;;;15.97;5.20;;;;;;;7.23;100.00;101842.84;5024394;28;20557;-73
2024/03/18 04:03:17;;;;;;;11.67;4.20;;;;;;;7.54;100.00;101896.69;5024752;28;20534;-73
2024/03/18 04:05:43;;;;;;;11.80;4.63;;;;;;;6.85;100.00;101795.94;5029263;28;20641;-73
2024/03/18 04:08:08;;;;;;;12.90;5.60;;;;;;;7.29;100.00;101870.75;5009279;28;20439;-73
2024/03/18 04:10:34;;;;;;;14.77;5.50;;;;;;;7.58;100.00;101905.22;5024924;28;20431;-73
2024/03/18 04:12:59;;;;;;;15.73;4.87;;;;;;;6.76;100.00;101731.88;5018643;28;20210;-73
2024/03/18 04:15:25;;;;;;;11.37;4.70;;;;;;;7.31;100.00;101815.41;5027360;28;20200;-73
2024/03/18 04:17:50;;;;;;;10.30;5.03;;;;;;;7.61;100.00;101880.91;5030333;28;20264;-73
2024/03/18 04:20:19;;;;;;;11.10;4.53;;;;;;;7.01;100.00;101778.28;5028454;28;20199;-73
2024/03/18 04:22:49;;;;;;;11.43;4.63;;;;;;;7.46;100.00;101852.09;5026610;28;20216;-73
2024/03/18 04:25:14;;;;;;;12.40;5.37;;;;;;;7.60;100.00;101853.34;5022529;28;20443;-73
2024/03/18 04:27:43;;;;;;;11.87;4.60;;;;;;;7.58;100.00;101846.47;5032382;28;20517;-73
2024/03/18 04:30:13;;;;;;;13.20;5.13;;;;;;;7.68;100.00;101876.63;5028788;28;20447;-73
2024/03/18 04:32:43;;;;;;;13.50;5.00;;;;;;;7.47;100.00;101835.06;4999815;28;20455;-73
2024/03/18 04:35:09;;;;;;;13.43;4.87;;;;;;;6.96;100.00;101767.22;5028643;28;20443;-73
2024/03/18 04:37:34;;;;;;;12.80;6.10;;;;;;;7.14;100.00;101785.88;5025259;28;20446;-73
2024/03/18 04:40:06;;;;;;;11.40;4.70;;;;;;;7.42;100.00;101865.88;5024261;28;20633;-73
2024/03/18 04:42:32;;;;;;;8.70;4.53;;;;;;;7.31;100.00;101844.75;5025027;28;20624;-73
2024/03/18 04:44:57;;;;;;;12.70;5.57;;;;;;;6.95;100.00;101792.22;5027516;28;20439;-73
2024/03/18 04:47:22;;;;;;;10.87;5.63;;;;;;;7.14;100.00;101811.75;5027754;28;20184;-73
2024/03/18 04:49:48;;;;;;;11.57;5.00;;;;;;;7.62;100.00;101877.25;5024355;28;20193;-73
2024/03/18 04:52:13;;;;;;;13.57;4.90;;;;;;;7.20;100.00;101800.44;5021122;28;20200;-73
2024/03/18 04:54:39;;;;;;;16.70;5.67;;;;;;;6.70;100.00;101747.63;5029544;28;20176;-73
2024/03/18 04:57:04;;;;;;;11.53;5.10;;;;;;;7.42;100.00;101848.03;5032239;28;20187;-73
2024/03/18 04:59:29;;;;;;;13.83;5.23;;;;;;;7.15;100.00;101816.09;5010602;28;20196;-73
2024/03/18 05:01:55;;;;;;;12.60;5.07;;;;;;;7.04;100.00;101784.31;5025361;28;20294;-73
2024/03/18 05:04:20;;;;;;;10.70;4.70;;;;;;;7.06;100.00;101775.16;5007483;28;20287;-73
2024/03/18 05:06:46;;;;;;;12.83;5.83;;;;;;;6.16;100.00;101632.97;5024703;28;20232;-73
2024/03/18 05:09:12;;;;;;;12.23;5.67;;;;;;;6.85;100.00;101742.59;5023414;28;20192;-75
2024/03/18 05:11:37;;;;;;;10.60;4.53;;;;;;;6.13;100.00;101630.59;5023252;28;20454;-74
2024/03/18 05:14:03;;;;;;;14.40;5.53;;;;;;;7.06;100.00;101792.97;5006481;28;20184;-74
2024/03/18 05:16:35;;;;;;;10.80;5.30;;;;;;;7.35;100.00;101820.28;5027480;28;20196;-74
2024/03/18 05:19:01;;;;;;;11.10;5.30;;;;;;;7.03;100.00;101807.50;5028897;28;20185;-74
2024/03/18 05:21:26;;;;;;;11.90;5.10;;;;;;;7.29;100.00;101836.91;5029444;28;20975;-74
2024/03/18 05:23:52;;;;;;;11.03;5.43;;;;;;;7.39;100.00;101861.69;5032320;28;20223;-74
2024/03/18 05:26:17;;;;;;;11.10;5.57;;;;;;;6.21;100.00;101678.66;5030004;28;20319;-74
2024/03/18 05:28:43;;;;;;;11.30;5.10;;;;;;;7.18;100.00;101851.31;5031578;28;20184;-74
2024/03/18 05:31:08;;;;;;;12.67;6.07;;;;;;;6.09;100.00;101643.41;5031715;28;20409;-74
2024/03/18 05:33:33;;;;;;;11.53;5.63;;;;;;;7.54;100.00;101874.50;5033426;28;20710;-74
2024/03/18 05:35:59;;;;;;;10.53;4.70;;;;;;;6.73;100.00;101742.00;5034670;28;20192;-74
2024/03/18 05:38:24;;;;;;;15.33;6.27;;;;;;;7.21;100.00;101826.16;5009030;28;20184;-74
2024/03/18 05:40:49;;;;;;;15.40;6.07;;;;;;;6.79;100.00;101790.22;5030591;28;20212;-74
2024/03/18 05:43:15;;;;;;;10.37;5.37;;;;;;;6.76;100.00;101777.19;5033330;28;20552;-74
2024/03/18 05:45:40;;;;;;;10.47;5.00;;;;;;;7.57;100.00;101890.19;5024667;28;20682;-74
2024/03/18 05:48:06;;;;;;;13.47;5.97;;;;;;;6.46;100.00;101724.22;5023750;28;20187;-74
2024/03/18 05:50:32;;;;;;;12.67;5.30;;;;;;;7.07;100.00;101824.84;5028690;28;20668;-74
2024/03/18 05:52:57;;;;;;;13.20;5.00;;;;;;;7.25;100.00;101868.38;5027555;28;20473;-74
2024/03/18 05:55:23;;;;;;;14.23;6.53;;;;;;;7.29;100.00;101887.63;5032906;28;20188;-74
2024/03/18 05:57:48;;;;;;;14.00;5.50;;;;;;;7.33;100.00;101894.31;5028650;28;20593;-74
2024/03/18 06:00:14;;;;;;;12.13;6.27;;;;;;;7.02;100.00;101859.97;5032694;28;20247;-74
2024/03/18 06:02:40;;;;;;;12.00;6.10;;;;;;;6.96;100.00;101875.75;5006228;28;20232;-74
2024/03/18 06:05:06;;;;;;;16.13;6.60;;;;;;;7.41;100.00;101947.78;5033692;28;20454;-74
2024/03/18 06:07:31;;;;;;;13.20;5.60;;;;;;;6.77;100.00;101853.56;5027334;28;20184;-74
2024/03/18 06:09:56;;;;;;;12.60;6.70;;;;;;;6.16;100.00;101770.66;5028648;28;20277;-74
2024/03/18 06:12:27;;;;;;;12.60;5.17;;;;;;;6.30;100.00;101815.47;5032980;28;20227;-74
2024/03/18 06:14:52;;;;;;;14.47;6.27;;;;;;;7.24;100.00;101965.44;5027192;28;20587;-74
2024/03/18 06:17:18;;;;;;;12.03;5.77;;;;;;;7.02;100.00;101940.00;5032389;28;20427;-74
2024/03/18 06:19:43;;;;;;;11.17;5.67;;;;;;;7.04;100.00;101937.22;5030053;28;20180;-74
2024/03/18 06:22:20;;;;;;;14.50;6.70;;;;;;;6.59;100.00;101870.47;5029641;28;20208;-74
2024/03/18 06:27:30;;;;;;;12.43;6.07;;;;;;;6.58;100.00;101893.63;5027367;28;20438;-74
2024/03/18 06:29:55;;;;;;;10.90;4.90;;;;;;;7.18;100.00;101982.06;5025795;28;20826;-74
2024/03/18 06:32:20;;;;;;;14.77;6.00;;;;;;;6.09;100.00;101816.53;5032106;28;20212;-74
2024/03/18 06:34:46;;;;;;;11.50;5.40;;;;;;;6.13;100.00;101809.09;5029107;28;20188;-74
2024/03/18 06:37:11;;;;;;;13.43;5.80;;;;;;;7.27;100.00;101993.69;5003119;28;20714;-74
2024/03/18 06:39:37;;;;;;;13.10;5.23;;;;;;;6.22;100.00;101853.53;5027807;28;20210;-74
2024/03/18 06:42:02;;;;;;;14.20;5.80;;;;;;;7.31;100.00;101996.88;5024512;28;20234;-74
2024/03/18 06:44:30;;;;;;;15.40;5.70;;;;;;;7.29;100.00;101996.19;5027301;28;20177;-74
2024/03/18 06:46:55;;;;;;;15.83;6.50;;;;;;;6.48;100.00;101919.47;5029492;28;20196;-74
2024/03/18 06:49:21;;;;;;;15.73;7.03;;;;;;;6.16;100.00;101867.41;5027151;28;20446;-74
2024/03/18 06:51:46;;;;;;;17.00;5.90;;;;;;;7.13;100.00;102026.19;5023917;28;20212;-74
2024/03/18 06:54:13;;;;;;;17.73;6.27;;;;;;;6.94;100.00;102019.94;5028573;28;20672;-74
2024/03/18 06:56:38;;;;;;;13.57;6.70;;;;;;;6.09;100.00;101891.13;5030003;28;20545;-74
2024/03/18 06:59:04;;;;;;;16.23;7.87;;;;;;;6.94;100.00;102035.09;5028424;28;20443;-74
2024/03/18 07:01:29;;;;;;;15.30;8.10;;;;;;;6.56;100.00;101972.91;5027838;28;20216;-74
2024/03/18 07:03:55;;;;;;;19.10;7.57;;;;;;;6.50;100.00;101973.47;5028025;28;20188;-74
2024/03/18 07:06:20;;;;;;;16.10;7.33;;;;;;;5.91;100.00;101882.16;5027789;28;20193;-74
2024/03/18 07:08:46;;;;;;;14.70;6.63;;;;;;;6.43;100.00;101980.38;5027129;28;20665;-74
2024/03/18 07:11:13;;;;;;;14.63;8.43;;;;;;;7.02;100.00;102054.72;5027285;28;20208;-74
2024/03/18 07:13:39;;;;;;;14.70;7.40;;;;;;;7.09;100.00;102033.66;5024711;28;20552;-74
2024/03/18 07:16:06;;;;;;;13.00;7.27;;;;;;;6.57;100.00;101983.44;5021768;28;20431;-74
2024/03/18 07:18:32;;;;;;;19.23;8.97;;;;;;;6.59;100.00;101982.44;5026284;28;21043;-74
2024/03/18 07:20:57;;;;;;;16.70;9.03;;;;;;;6.75;100.00;101988.00;5026958;28;20480;-74
2024/03/18 07:23:23;;;;;;;17.13;8.33;;;;;;;5.86;100.00;101868.44;5031341;28;20192;-74
2024/03/18 07:25:52;;;;;;;14.97;8.57;;;;;;;6.98;100.00;102053.34;5029061;28;20633;-74
2024/03/18 07:28:17;;;;;;;14.33;8.77;;;;;;;6.55;100.00;102016.53;5025116;28;20249;-74
2024/03/18 07:30:46;;;;;;;15.80;7.90;;;;;;;6.25;100.00;101959.81;5003278;28;20427;-74
2024/03/18 07:33:12;;;;;;;15.83;7.80;;;;;;;6.41;100.00;101996.50;5032189;28;20306;-74
2024/03/18 07:35:37;;;;;;;18.63;8.70;;;;;;;6.97;100.00;102065.00;5029431;28;20533;-74
2024/03/18 07:38:03;;;;;;;18.97;8.60;;;;;;;4.47;100.00;101714.44;5025881;22;20244;-77
2024/03/18 07:40:29;;;;;;;16.90;8.30;;;;;;;4.34;100.00;101660.72;4985425;28;20209;-77
2024/03/18 07:42:57;;;;;;;17.73;8.03;;;;;;;4.94;100.00;101837.75;4987847;28;20506;-77
2024/03/18 07:45:23;;;;;;;14.00;7.90;;;;;;;5.64;100.00;101874.88;4983470;28;20189;-77
2024/03/18 07:47:51;;;;;;;15.60;9.50;;;;;;;5.73;100.00;101843.91;4987931;28;20511;-77
2024/03/18 07:50:17;;;;;;;16.83;9.23;;;;;;;6.22;100.00;101964.56;4969933;28;20450;-77
2024/03/18 07:52:42;;;;;;;17.47;9.70;;;;;;;5.22;100.00;101795.38;4972853;28;20465;-77
2024/03/18 07:55:09;;;;;;;15.47;8.60;;;;;;;4.99;100.00;101757.56;4985852;28;20631;-77
2024/03/18 07:57:34;;;;;;;16.97;9.20;;;;;;;4.74;100.00;101705.78;4986158;28;20448;-78
2024/03/18 08:00:06;;;;;;;15.60;10.03;;;;;;;5.74;100.00;101854.44;4969312;28;20484;-77
2024/03/18 08:02:34;;;;;;;17.17;9.67;;;;;;;6.36;100.00;101909.97;4965706;28;20245;-78
2024/03/18 08:05:00;;;;;;;18.00;8.90;;;;;;;5.71;100.00;101869.84;4987384;28;20475;-78
2024/03/18 08:07:25;;;;;;;19.33;10.23;;;;;;;5.77;100.00;101874.59;4986837;28;20472;-77
2024/03/18 08:09:51;;;;;;;19.90;10.83;;;;;;;4.91;100.00;101689.13;4987637;28;20471;-77
2024/03/18 08:12:16;;;;;;;21.53;10.03;;;;;;;4.84;100.00;101666.78;4988329;28;20202;-77
2024/03/18 08:14:43;;;;;;;15.73;9.20;;;;;;;4.92;100.00;101724.56;4985511;28;20185;-77
2024/03/18 08:17:09;;;;;;;15.70;10.00;;;;;;;6.15;100.00;101913.69;4987960;28;20182;-77
2024/03/18 08:19:36;;;;;;;18.70;10.63;;;;;;;6.18;100.00;101896.56;4986977;28;20523;-77
2024/03/18 08:22:03;;;;;;;16.23;10.13;;;;;;;5.25;100.00;101722.44;4993275;28;20240;-77
2024/03/18 08:24:35;;;;;;;15.33;9.13;;;;;;;4.99;100.00;101694.59;4971460;28;20440;-77
2024/03/18 08:27:06;;;;;;;14.87;8.73;;;;;;;5.63;100.00;101774.72;4989926;28;20483;-77
2024/03/18 08:29:34;;;;;;;17.20;8.53;;;;;;;4.94;100.00;101717.25;4974113;28;20984;-77
2024/03/18 08:32:05;;;;;;;14.60;9.37;;;;;;;5.76;100.00;101825.84;4987476;28;20452;-77
2024/03/18 08:34:35;;;;;;;16.47;9.00;;;;;;;5.06;100.00;101664.78;4988672;28;20440;-77
2024/03/18 08:37:03;;;;;;;16.30;9.27;;;;;;;4.68;100.00;101680.59;4987822;28;20460;-77
2024/03/18 08:39:29;;;;;;;15.37;9.50;;;;;;;6.17;100.00;101882.41;4987379;28;20441;-77
2024/03/18 08:42:00;;;;;;;13.67;9.13;;;;;;;6.07;100.00;101854.94;4987317;28;20470;-77
2024/03/18 08:44:25;;;;;;;18.37;9.70;;;;;;;6.42;100.00;101886.28;4987148;28;20277;-78
2024/03/18 08:46:51;;;;;;;15.40;10.43;;;;;;;5.75;100.00;101815.34;4987288;28;20449;-77
2024/03/18 08:49:23;;;;;;;15.73;9.20;;;;;;;4.96;100.00;101667.47;4988360;28;20545;-77
2024/03/18 08:51:51;;;;;;;15.20;9.40;;;;;;;5.48;100.00;101779.66;4987981;28;20230;-77
2024/03/18 08:54:22;;;;;;;15.37;9.30;;;;;;;5.84;100.00;101810.00;4974011;28;20966;-77
2024/03/18 08:56:48;;;;;;;19.43;10.00;;;;;;;4.90;100.00;101683.97;4986341;28;20437;-77
2024/03/18 08:59:13;;;;;;;15.93;10.50;;;;;;;5.73;100.00;101788.00;4986326;28;20587;-77
2024/03/18 09:01:39;;;;;;;17.07;8.90;;;;;;;6.47;100.00;101929.28;4989384;28;20213;-78
2024/03/18 09:04:05;;;;;;;17.80;10.03;;;;;;;6.54;100.00;101879.75;4985173;28;20186;-77
2024/03/18 09:06:33;;;;;;;16.40;10.20;;;;;;;5.82;100.00;101801.31;4969520;28;20193;-77
2024/03/18 09:08:58;;;;;;;16.50;11.33;;;;;;;5.32;100.00;101694.25;4988045;28;20487;-77
2024/03/18 09:11:24;;;;;;;24.20;10.43;;;;;;;5.76;100.00;101785.91;4973177;28;20981;-77
2024/03/18 09:13:49;;;;;;;16.87;10.03;;;;;;;5.01;100.00;101627.16;4972239;28;20186;-77
2024/03/18 09:16:15;;;;;;;21.13;10.10;;;;;;;6.07;100.00;101829.16;4989392;28;20200;-78
2024/03/18 09:18:40;;;;;;;18.40;10.67;;;;;;;5.18;100.00;101675.13;4996944;28;20186;-78
2024/03/18 09:21:09;;;;;;;16.53;9.57;;;;;;;6.65;100.00;101916.03;4987095;28;20268;-77
2024/03/18 09:23:34;;;;;;;17.60;10.73;;;;;;;5.44;100.00;101706.44;4987245;28;20471;-77
2024/03/18 09:26:00;;;;;;;14.70;9.23;;;;;;;5.25;100.00;101656.75;4990766;28;20914;-78
2024/03/18 09:28:25;;;;;;;16.00;10.93;;;;;;;5.08;100.00;101647.69;4970277;28;20193;-77
2024/03/18 09:31:01;;;;;;;18.07;10.57;;;;;;;5.71;100.00;101753.56;4989349;28;20189;-78
2024/03/18 09:33:28;;;;;;;17.60;10.67;;;;;;;5.66;100.00;101702.56;4971351;28;20189;-78
2024/03/18 09:35:54;;;;;;;17.33;9.97;;;;;;;5.71;100.00;101695.00;4989293;28;20452;-78
2024/03/18 09:38:19;;;;;;;13.80;9.23;;;;;;;5.63;100.00;101734.81;4988530;28;20433;-78
2024/03/18 09:40:45;;;;;;;14.50;8.97;;;;;;;5.06;100.00;101607.09;4986636;28;20305;-78
2024/03/18 09:43:11;;;;;;;17.43;9.50;;;;;;;6.34;100.00;101846.19;4987087;28;20674;-78
2024/03/18 09:45:37;;;;;;;15.37;9.27;;;;;;;6.38;100.00;101814.75;4986833;28;20196;-78
2024/03/18 09:48:04;;;;;;;20.27;9.43;;;;;;;5.94;100.00;101810.00;4986674;28;21089;-78
2024/03/18 09:50:31;;;;;;;14.73;9.50;;;;;;;6.11;100.00;101811.06;4972319;28;20200;-78
2024/03/18 09:52:57;;;;;;;17.17;9.30;;;;;;;6.60;100.00;101886.34;4970127;28;20844;-78
2024/03/18 09:55:24;;;;;;;17.20;9.77;;;;;;;6.43;100.00;101882.59;4988575;28;20440;-78
2024/03/18 09:57:51;;;;;;;12.97;8.47;;;;;;;6.85;100.00;101907.97;4987591;28;20532;-78
2024/03/18 10:00:19;;;;;;;19.00;9.40;;;;;;;5.58;100.00;101666.06;4987992;28;20941;-78
2024/03/18 10:02:45;;;;;;;16.20;9.20;;;;;;;7.23;100.00;101945.09;4988937;28;20461;-78
2024/03/18 10:05:15;;;;;;;18.43;10.67;;;;;;;7.44;100.00;101963.50;4988823;28;20930;-78
2024/03/18 10:07:43;;;;;;;12.53;9.43;;;;;;;6.01;100.00;101739.19;4985761;28;20425;-78
2024/03/18 10:10:17;;;;;;;15.13;9.43;;;;;;;5.89;100.00;101722.50;4987272;28;20519;-78
2024/03/18 10:12:43;;;;;;;17.07;9.97;;;;;;;6.67;100.00;101841.25;4986798;28;20484;-78
2024/03/18 10:15:13;;;;;;;12.20;8.50;;;;;;;6.02;100.00;101778.16;4987466;28;20445;-78
2024/03/18 10:17:40;;;;;;;14.80;8.87;;;;;;;5.66;100.00;101698.09;4988556;28;20444;-78
2024/03/18 10:20:18;;;;;;;13.73;9.10;;;;;;;6.27;100.00;101850.41;4989403;28;20437;-78
2024/03/18 10:22:46;;;;;;;14.57;8.20;;;;;;;7.06;100.00;101950.38;4985793;28;20552;-78
2024/03/18 10:25:14;;;;;;;16.30;9.03;;;;;;;6.87;100.00;101951.31;4987009;28;20440;-78
2024/03/18 10:27:40;;;;;;;13.20;8.17;;;;;;;6.34;100.00;101847.03;4986246;28;20497;-78
2024/03/18 10:30:06;;;;;;;13.20;8.67;;;;;;;6.66;100.00;101877.75;4986718;28;20523;-78
2024/03/18 10:32:35;;;;;;;18.00;8.30;;;;;;;6.22;100.00;101786.06;4986720;28;20562;-78
2024/03/18 10:35:02;;;;;;;14.57;9.10;;;;;;;5.65;100.00;101680.44;4987151;28;20444;-78
2024/03/18 10:37:28;;;;;;;15.07;9.57;;;;;;;5.71;100.00;101720.78;4968943;28;20445;-78
2024/03/18 10:40:10;;;;;;;13.43;8.07;;;;;;;5.69;100.00;101760.00;4986113;28;20432;-78
2024/03/18 10:42:40;;;;;;;14.20;8.47;;;;;;;6.89;100.00;101885.34;4986016;28;20519;-78
2024/03/18 10:45:08;;;;;;;13.57;8.13;;;;;;;7.72;100.00;102026.69;4967566;28;20445;-78
2024/03/18 10:47:34;;;;;;;15.20;9.30;;;;;;;7.08;100.00;101973.25;4985643;28;20433;-78
2024/03/18 10:50:02;;;;;;;13.50;8.70;;;;;;;7.07;100.00;101904.88;4986275;28;20441;-78
2024/03/18 10:52:30;;;;;;;14.37;9.47;;;;;;;6.09;100.00;101754.44;4972443;28;20456;-78
2024/03/18 10:54:57;;;;;;;15.77;8.97;;;;;;;5.82;100.00;101709.97;4969947;28;20880;-78
2024/03/18 10:57:23;;;;;;;14.50;9.60;;;;;;;6.11;100.00;101760.47;4985133;28;20443;-78
2024/03/18 10:59:48;;;;;;;15.10;9.07;;;;;;;6.86;100.00;101913.16;4984119;28;20518;-78
2024/03/18 11:02:14;;;;;;;12.13;8.77;;;;;;;7.08;100.00;101935.06;4986855;28;20473;-78
2024/03/18 11:04:40;;;;;;;14.87;9.53;;;;;;;6.87;100.00;101946.81;4966144;28;20469;-78
2024/03/18 11:07:09;;;;;;;23.43;10.27;;;;;;;6.43;100.00;101892.44;4967537;28;20585;-78
2024/03/18 11:09:38;;;;;;;15.50;9.73;;;;;;;6.18;100.00;101868.09;4970396;28;20972;-78
2024/03/18 11:12:25;;;;;;;16.73;11.00;;;;;;;7.13;100.00;101943.47;4986440;28;20456;-78
2024/03/18 11:15:03;;;;;;;15.67;10.17;;;;;;;6.32;100.00;101811.66;4983398;28;20472;-78
2024/03/18 11:17:29;;;;;;;16.23;10.70;;;;;;;5.05;100.00;101639.19;4986556;28;20943;-78